createdAt,value
2018-04-11T00:00:19.300Z,9.61
2018-04-11T00:03:21.794Z,9.51
2018-04-11T00:06:24.265Z,9.38
2018-04-11T00:09:26.788Z,9.30
2018-04-11T00:12:29.354Z,9.24
2018-04-11T00:15:31.896Z,9.22
2018-04-11T00:18:34.434Z,9.14
2018-04-11T00:21:36.909Z,9.08
2018-04-11T00:24:39.503Z,8.98
2018-04-11T00:27:42.017Z,8.97
2018-04-11T00:30:44.495Z,8.97
2018-04-11T00:33:47.004Z,8.95
2018-04-11T00:36:49.648Z,8.88
2018-04-11T00:39:52.192Z,8.77
2018-04-11T00:42:54.662Z,8.74
2018-04-11T00:45:57.233Z,8.65
2018-04-11T00:48:59.749Z,8.61
2018-04-11T00:52:02.250Z,8.48
2018-04-11T00:55:04.751Z,8.50
2018-04-11T00:58:07.288Z,8.49
2018-04-11T01:01:09.809Z,8.38
2018-04-11T01:04:12.350Z,8.32
2018-04-11T01:07:14.866Z,8.36
2018-04-11T01:10:17.376Z,8.33
2018-04-11T01:13:19.989Z,8.27
2018-04-11T01:16:22.479Z,8.24
2018-04-11T01:19:24.940Z,8.24
2018-04-11T01:22:27.435Z,8.20
2018-04-11T01:25:29.929Z,8.18
2018-04-11T01:28:32.489Z,8.16
2018-04-11T01:31:34.967Z,8.14
2018-04-11T01:34:37.462Z,8.08
2018-04-11T01:37:39.965Z,8.03
2018-04-11T01:40:42.469Z,8.00
2018-04-11T01:43:44.959Z,8.02
2018-04-11T01:46:47.425Z,8.06
2018-04-11T01:49:49.919Z,7.97
2018-04-11T01:52:52.484Z,7.94
2018-04-11T01:55:55.000Z,7.91
2018-04-11T01:58:57.455Z,7.93
2018-04-11T02:01:59.936Z,7.89
2018-04-11T02:05:02.428Z,7.82
2018-04-11T02:08:04.926Z,7.81
2018-04-11T02:11:07.391Z,7.77
2018-04-11T02:14:09.873Z,7.72
2018-04-11T02:17:12.372Z,7.71
2018-04-11T02:20:14.933Z,7.70
2018-04-11T02:23:17.392Z,7.68
2018-04-11T02:26:19.887Z,7.60
2018-04-11T02:29:22.352Z,7.60
2018-04-11T02:32:24.879Z,7.59
2018-04-11T02:35:27.339Z,7.61
2018-04-11T02:38:30.248Z,7.60
2018-04-11T02:41:32.698Z,7.60
2018-04-11T02:44:35.237Z,7.57
2018-04-11T02:47:37.792Z,7.56
2018-04-11T02:50:40.240Z,7.50
2018-04-11T02:53:42.823Z,7.59
2018-04-11T02:56:45.292Z,7.58
2018-04-11T02:59:47.792Z,7.58
2018-04-11T03:02:50.297Z,7.59
2018-04-11T03:05:52.772Z,7.57
2018-04-11T03:08:55.331Z,7.53
2018-04-11T03:11:57.787Z,7.54
2018-04-11T03:15:00.298Z,7.53
2018-04-11T03:18:02.922Z,7.52
2018-04-11T03:21:05.427Z,7.58
2018-04-11T03:24:07.916Z,7.62
2018-04-11T03:27:10.403Z,7.59
2018-04-11T03:30:12.960Z,7.52
2018-04-11T03:33:15.518Z,7.56
2018-04-11T03:36:18.020Z,7.57
2018-04-11T03:39:20.649Z,7.58
2018-04-11T03:42:23.145Z,7.56
2018-04-11T03:45:25.610Z,7.61
2018-04-11T03:48:28.113Z,7.74
2018-04-11T03:51:30.593Z,7.70
2018-04-11T03:54:33.093Z,7.71
2018-04-11T03:57:35.612Z,7.61
2018-04-11T04:00:38.102Z,7.79
2018-04-11T04:03:40.638Z,7.74
2018-04-11T04:06:43.205Z,7.73
2018-04-11T04:09:45.656Z,7.77
2018-04-11T04:12:48.186Z,7.74
2018-04-11T04:16:02.550Z,7.83
2018-04-11T04:19:17.009Z,7.86
2018-04-11T04:22:19.552Z,7.94
2018-04-11T04:25:22.023Z,7.89
2018-04-11T04:28:24.574Z,7.93
2018-04-11T04:31:27.141Z,8.05
2018-04-11T04:34:29.657Z,7.96
2018-04-11T04:37:32.169Z,8.00
2018-04-11T04:40:34.722Z,8.04
2018-04-11T04:43:37.253Z,8.00
2018-04-11T04:46:39.751Z,8.15
2018-04-11T04:49:42.237Z,8.13
2018-04-11T04:52:44.737Z,8.16
2018-04-11T04:55:47.197Z,8.16
2018-04-11T04:58:49.725Z,8.23
2018-04-11T05:01:52.253Z,8.20
2018-04-11T05:04:54.816Z,8.23
2018-04-11T05:07:57.320Z,8.17
2018-04-11T05:10:59.805Z,8.44
2018-04-11T05:14:02.302Z,8.64
2018-04-11T05:17:04.782Z,9.26
2018-04-11T05:20:07.356Z,9.93
2018-04-11T05:23:09.919Z,10.00
2018-04-11T05:26:12.376Z,10.42
2018-04-11T05:29:14.910Z,9.81
2018-04-11T05:32:17.398Z,9.41
2018-04-11T05:35:19.939Z,9.40
2018-04-11T05:38:22.495Z,9.35
2018-04-11T05:41:25.160Z,9.30
2018-04-11T05:44:27.725Z,9.12
2018-04-11T05:47:30.281Z,8.98
2018-04-11T05:50:32.807Z,8.85
2018-04-11T05:53:35.304Z,8.80
2018-04-11T05:56:37.792Z,8.86
2018-04-11T05:59:41.579Z,9.01
2018-04-11T06:02:44.129Z,8.80
2018-04-11T06:05:46.652Z,8.95
2018-04-11T06:08:49.251Z,9.09
2018-04-11T06:11:51.820Z,9.07
2018-04-11T06:14:54.465Z,9.06
2018-04-11T06:17:56.945Z,9.12
2018-04-11T06:20:59.483Z,9.22
2018-04-11T06:24:01.989Z,9.02
2018-04-11T06:27:04.496Z,8.95
2018-04-11T06:30:06.973Z,8.94
2018-04-11T06:33:09.540Z,8.93
2018-04-11T06:36:12.025Z,9.12
2018-04-11T06:39:14.570Z,9.08
2018-04-11T06:42:17.059Z,9.01
2018-04-11T06:45:19.519Z,8.92
2018-04-11T06:48:22.016Z,8.96
2018-04-11T06:51:24.679Z,8.82
2018-04-11T06:54:27.142Z,8.89
2018-04-11T06:57:29.844Z,9.04
2018-04-11T07:00:32.341Z,9.19
2018-04-11T07:03:34.826Z,9.44
2018-04-11T07:06:37.340Z,9.65
2018-04-11T07:09:39.841Z,9.81
2018-04-11T07:12:42.369Z,9.83
2018-04-11T07:15:44.895Z,9.74
2018-04-11T07:18:47.434Z,9.98
2018-04-11T07:21:50.041Z,9.95
2018-04-11T07:24:52.546Z,9.84
2018-04-11T07:27:55.079Z,9.94
2018-04-11T07:30:57.581Z,9.69
2018-04-11T07:34:00.112Z,9.76
2018-04-11T07:37:02.606Z,9.75
2018-04-11T07:40:05.145Z,9.86
2018-04-11T07:43:07.636Z,9.97
2018-04-11T07:46:10.192Z,10.05
2018-04-11T07:49:12.805Z,10.09
2018-04-11T07:52:15.358Z,10.03
2018-04-11T07:55:17.819Z,10.14
2018-04-11T07:58:20.360Z,10.40
2018-04-11T08:01:22.895Z,10.58
2018-04-11T08:04:25.512Z,10.94
2018-04-11T08:07:28.022Z,11.17
2018-04-11T08:10:30.532Z,11.20
2018-04-11T08:13:33.045Z,11.25
2018-04-11T08:16:35.541Z,11.29
2018-04-11T08:19:37.990Z,11.07
2018-04-11T08:22:40.575Z,10.90
2018-04-11T08:25:43.096Z,10.82
2018-04-11T08:28:45.620Z,10.69
2018-04-11T08:31:48.116Z,10.94
2018-04-11T08:34:50.639Z,11.02
2018-04-11T08:37:53.150Z,11.00
2018-04-11T08:40:55.652Z,11.20
2018-04-11T08:43:58.172Z,11.25
2018-04-11T08:47:00.710Z,11.45
2018-04-11T08:50:03.212Z,11.45
2018-04-11T08:53:05.751Z,11.56
2018-04-11T08:56:08.256Z,11.10
2018-04-11T08:59:10.891Z,11.31
2018-04-11T09:02:13.416Z,11.64
2018-04-11T09:05:15.947Z,11.92
2018-04-11T09:08:18.451Z,11.88
2018-04-11T09:11:21.072Z,11.99
2018-04-11T09:14:23.656Z,12.03
2018-04-11T09:17:26.171Z,12.06
2018-04-11T09:20:28.662Z,12.12
2018-04-11T09:23:31.156Z,12.31
2018-04-11T09:26:33.753Z,12.05
2018-04-11T09:29:36.371Z,12.20
2018-04-11T09:32:38.922Z,12.22
2018-04-11T09:35:41.467Z,12.73
2018-04-11T09:38:43.985Z,12.67
2018-04-11T09:41:46.491Z,12.60
2018-04-11T09:44:49.168Z,13.11
2018-04-11T09:47:51.688Z,13.06
2018-04-11T09:50:54.188Z,13.20
2018-04-11T09:53:56.731Z,13.40
2018-04-11T09:56:59.243Z,13.11
2018-04-11T10:00:01.827Z,13.10
2018-04-11T10:03:06.074Z,12.88
2018-04-11T10:06:08.647Z,13.21
2018-04-11T10:09:11.132Z,13.31
2018-04-11T10:12:13.643Z,13.45
2018-04-11T10:15:16.231Z,13.65
2018-04-11T10:18:18.731Z,13.64
2018-04-11T10:21:21.247Z,13.71
2018-04-11T10:24:23.776Z,13.84
2018-04-11T10:27:26.257Z,14.01
2018-04-11T10:30:28.793Z,14.09
2018-04-11T10:33:31.301Z,14.12
2018-04-11T10:36:33.867Z,13.97
2018-04-11T10:39:36.318Z,14.37
2018-04-11T10:42:38.812Z,14.65
2018-04-11T10:45:41.282Z,14.74
2018-04-11T10:48:43.825Z,14.60
2018-04-11T10:51:46.321Z,14.67
2018-04-11T10:54:48.832Z,14.81
2018-04-11T10:57:51.353Z,14.87
2018-04-11T11:00:53.913Z,15.52
2018-04-11T11:03:56.432Z,15.81
2018-04-11T11:06:58.907Z,15.24
2018-04-11T11:10:01.431Z,15.23
2018-04-11T11:13:03.992Z,15.28
2018-04-11T11:16:06.560Z,15.40
2018-04-11T11:19:09.074Z,15.72
2018-04-11T11:22:11.560Z,15.81
2018-04-11T11:25:14.108Z,15.29
2018-04-11T11:28:16.627Z,15.45
2018-04-11T11:31:19.144Z,15.45
2018-04-11T11:34:21.730Z,15.71
2018-04-11T11:37:24.218Z,15.56
2018-04-11T11:40:26.793Z,15.34
2018-04-11T11:43:29.318Z,15.45
2018-04-11T11:46:31.798Z,15.32
2018-04-11T11:49:34.316Z,14.97
2018-04-11T11:52:36.833Z,15.03
2018-04-11T11:55:39.379Z,15.17
2018-04-11T11:58:41.884Z,15.14
2018-04-11T12:01:44.337Z,14.97
2018-04-11T12:04:46.968Z,15.13
2018-04-11T12:07:49.468Z,14.88
2018-04-11T12:10:51.959Z,15.08
2018-04-11T12:13:54.560Z,15.12
2018-04-11T12:16:57.094Z,15.47
2018-04-11T12:19:59.582Z,15.28
2018-04-11T12:23:02.123Z,14.86
2018-04-11T12:26:04.623Z,14.94
2018-04-11T12:29:07.259Z,15.04
2018-04-11T12:32:09.769Z,15.16
2018-04-11T12:35:12.298Z,15.38
2018-04-11T12:38:14.803Z,15.09
2018-04-11T12:41:17.396Z,15.54
2018-04-11T12:44:19.921Z,15.55
2018-04-11T12:47:22.409Z,15.58
2018-04-11T12:50:24.908Z,15.57
2018-04-11T12:53:27.413Z,16.17
2018-04-11T12:56:29.894Z,16.28
2018-04-11T12:59:32.469Z,16.19
2018-04-11T13:02:35.032Z,16.35
2018-04-11T13:05:37.522Z,16.32
2018-04-11T13:08:40.038Z,16.25
2018-04-11T13:11:42.612Z,15.83
2018-04-11T13:14:45.081Z,15.55
2018-04-11T13:17:47.609Z,15.14
2018-04-11T13:20:50.110Z,15.11
2018-04-11T13:23:52.576Z,15.37
2018-04-11T13:26:55.120Z,15.78
2018-04-11T13:29:57.654Z,15.54
2018-04-11T13:33:00.190Z,15.13
2018-04-11T13:36:02.741Z,15.30
2018-04-11T13:39:05.479Z,15.16
2018-04-11T13:42:07.980Z,14.95
2018-04-11T13:45:10.524Z,15.27
2018-04-11T13:48:12.991Z,15.07
2018-04-11T13:51:15.521Z,14.78
2018-04-11T13:54:18.037Z,14.71
2018-04-11T13:57:20.654Z,15.02
2018-04-11T14:00:23.191Z,15.45
2018-04-11T14:07:03.337Z,15.18
2018-04-11T14:10:05.817Z,14.88
2018-04-11T14:13:08.327Z,14.63
2018-04-11T14:16:10.870Z,14.52
2018-04-11T14:19:13.372Z,14.35
2018-04-11T14:22:15.959Z,14.28
2018-04-11T14:25:18.548Z,14.28
2018-04-11T14:28:21.014Z,14.33
2018-04-11T14:31:23.580Z,14.27
2018-04-11T14:34:26.051Z,14.51
2018-04-11T14:37:28.552Z,14.52
2018-04-11T14:40:31.062Z,14.59
2018-04-11T14:43:33.577Z,14.64
2018-04-11T14:46:36.121Z,14.53
2018-04-11T14:49:38.622Z,14.56
2018-04-11T14:52:41.074Z,14.47
2018-04-11T14:55:43.555Z,14.38
2018-04-11T14:58:46.058Z,14.45
2018-04-11T15:01:48.580Z,14.47
2018-04-11T15:04:51.134Z,14.58
2018-04-11T15:07:53.622Z,14.54
2018-04-11T15:10:56.141Z,14.36
2018-04-11T15:13:58.621Z,14.30
2018-04-11T15:17:01.115Z,14.35
2018-04-11T15:20:03.678Z,14.42
2018-04-11T15:23:06.158Z,14.34
2018-04-11T15:26:08.684Z,14.35
2018-04-11T15:29:11.186Z,14.32
2018-04-11T15:32:13.697Z,14.43
2018-04-11T15:35:16.245Z,14.42
2018-04-11T15:38:18.743Z,14.56
2018-04-11T15:41:21.212Z,14.59
2018-04-11T15:44:23.736Z,14.67
2018-04-11T15:47:26.263Z,14.87
2018-04-11T15:50:28.775Z,14.93
2018-04-11T15:53:31.328Z,14.92
2018-04-11T15:56:33.842Z,14.92
2018-04-11T15:59:36.335Z,15.01
2018-04-11T16:02:38.852Z,15.00
2018-04-11T16:05:41.327Z,15.09
2018-04-11T16:08:43.851Z,15.17
2018-04-11T16:11:46.403Z,15.21
2018-04-11T16:14:48.908Z,15.25
2018-04-11T16:17:51.397Z,15.00
2018-04-11T16:20:53.890Z,15.07
2018-04-11T16:23:56.396Z,15.11
2018-04-11T16:26:58.919Z,15.07
2018-04-11T16:30:01.429Z,15.03
2018-04-11T16:33:03.937Z,14.99
2018-04-11T16:36:06.442Z,15.08
2018-04-11T16:39:08.964Z,15.21
2018-04-11T16:42:11.485Z,15.33
2018-04-11T16:45:14.020Z,15.45
2018-04-11T16:48:17.002Z,15.53
2018-04-11T16:51:19.556Z,15.25
2018-04-11T16:54:22.015Z,15.24
2018-04-11T16:57:24.531Z,15.19
2018-04-11T17:00:26.993Z,15.14
2018-04-11T17:03:29.679Z,15.08
2018-04-11T17:06:32.212Z,15.19
2018-04-11T17:09:34.752Z,15.25
2018-04-11T17:12:37.193Z,15.23
2018-04-11T17:15:39.716Z,15.28
2018-04-11T17:18:42.259Z,15.26
2018-04-11T17:21:57.754Z,15.17
2018-04-11T17:25:12.068Z,15.31
2018-04-11T17:32:03.704Z,15.43
2018-04-11T17:35:06.237Z,15.40
2018-04-11T17:38:08.776Z,15.28
2018-04-11T17:41:11.277Z,15.24
2018-04-11T17:44:13.865Z,15.11
2018-04-11T17:47:16.518Z,15.03
2018-04-11T17:50:19.006Z,14.93
2018-04-11T17:53:21.492Z,14.91
2018-04-11T17:56:24.023Z,14.86
2018-04-11T17:59:26.510Z,14.85
2018-04-11T18:02:29.084Z,14.73
2018-04-11T18:05:31.583Z,14.56
2018-04-11T18:08:34.116Z,14.59
2018-04-11T18:11:36.655Z,14.43
2018-04-11T18:14:39.185Z,14.35
2018-04-11T18:17:41.664Z,14.22
2018-04-11T18:20:44.188Z,14.08
2018-04-11T18:23:46.731Z,14.03
2018-04-11T18:26:49.319Z,13.90
2018-04-11T18:29:51.956Z,13.85
2018-04-11T18:32:54.555Z,13.81
2018-04-11T18:35:57.101Z,13.80
2018-04-11T18:38:59.651Z,13.70
2018-04-11T18:42:02.183Z,13.62
2018-04-11T18:45:04.748Z,13.65
2018-04-11T18:48:07.282Z,13.60
2018-04-11T18:51:09.808Z,13.48
2018-04-11T18:54:12.339Z,13.39
2018-04-11T18:57:14.953Z,13.30
2018-04-11T19:00:17.614Z,13.25
2018-04-11T19:03:20.165Z,13.21
2018-04-11T19:06:22.707Z,13.20
2018-04-11T19:09:25.250Z,13.18
2018-04-11T19:12:27.942Z,13.16
2018-04-11T19:15:30.614Z,13.09
2018-04-11T19:18:33.131Z,13.06
2018-04-11T19:21:35.667Z,13.01
2018-04-11T19:24:38.173Z,13.00
2018-04-11T19:27:40.654Z,12.91
2018-04-11T19:30:43.175Z,12.86
2018-04-11T19:33:45.706Z,12.84
2018-04-11T19:36:48.184Z,12.78
2018-04-11T19:39:50.705Z,12.77
2018-04-11T19:42:53.216Z,12.78
2018-04-11T19:45:55.728Z,12.74
2018-04-11T19:48:58.300Z,12.72
2018-04-11T19:52:00.803Z,12.72
2018-04-11T19:55:03.307Z,12.62
2018-04-11T19:58:05.917Z,12.56
2018-04-11T20:01:08.454Z,12.55
2018-04-11T20:04:10.994Z,12.51
2018-04-11T20:07:13.468Z,12.50
2018-04-11T20:10:16.041Z,12.41
2018-04-11T20:13:18.607Z,12.29
2018-04-11T20:16:21.109Z,12.35
2018-04-11T20:19:23.626Z,12.26
2018-04-11T20:22:26.146Z,12.19
2018-04-11T20:25:28.685Z,12.16
2018-04-11T20:28:32.105Z,11.97
2018-04-11T20:31:34.676Z,11.84
2018-04-11T20:34:37.199Z,11.70
2018-04-11T20:37:39.779Z,11.57
2018-04-11T20:40:42.229Z,11.40
2018-04-11T20:43:44.740Z,11.33
2018-04-11T20:46:47.247Z,11.25
2018-04-11T20:49:49.756Z,11.13
2018-04-11T20:52:52.234Z,11.12
2018-04-11T20:55:54.784Z,11.04
2018-04-11T20:58:57.303Z,11.02
2018-04-11T21:01:59.838Z,10.93
2018-04-11T21:05:02.309Z,10.88
2018-04-11T21:08:04.833Z,10.68
2018-04-11T21:11:07.775Z,10.63
2018-04-11T21:14:10.292Z,10.67
2018-04-11T21:17:12.766Z,10.57
2018-04-11T21:20:15.306Z,10.59
2018-04-11T21:23:17.809Z,10.55
2018-04-11T21:26:20.322Z,10.50
2018-04-11T21:29:22.924Z,10.50
2018-04-11T21:32:25.476Z,10.39
2018-04-11T21:35:27.955Z,10.35
2018-04-11T21:38:30.461Z,10.35
2018-04-11T21:41:32.997Z,10.26
2018-04-11T21:44:35.539Z,10.08
2018-04-11T21:47:38.036Z,10.08
2018-04-11T21:50:40.577Z,9.99
2018-04-11T21:53:43.046Z,9.96
2018-04-11T21:56:45.556Z,9.92
2018-04-11T21:59:48.022Z,9.93
2018-04-11T22:02:50.536Z,9.96
2018-04-11T22:05:53.046Z,9.90
2018-04-11T22:08:55.529Z,9.88
2018-04-11T22:11:58.015Z,9.89
2018-04-11T22:15:00.504Z,9.86
2018-04-11T22:18:03.057Z,9.82
2018-04-11T22:21:05.528Z,9.86
2018-04-11T22:24:08.030Z,9.90
2018-04-11T22:27:10.505Z,9.98
2018-04-11T22:30:13.001Z,9.98
2018-04-11T22:33:15.492Z,9.94
2018-04-11T22:36:18.003Z,9.88
2018-04-11T22:39:20.543Z,9.74
2018-04-11T22:42:23.042Z,9.63
2018-04-11T22:45:25.797Z,9.56
2018-04-11T22:48:28.387Z,9.60
2018-04-11T22:51:30.878Z,9.47
2018-04-11T22:54:33.405Z,9.39
2018-04-11T22:57:35.939Z,9.46
2018-04-11T23:00:38.462Z,9.36
2018-04-11T23:03:40.960Z,9.36
2018-04-11T23:06:43.450Z,9.33
2018-04-11T23:09:45.971Z,9.30
2018-04-11T23:12:48.453Z,9.16
2018-04-11T23:15:50.936Z,9.17
2018-04-11T23:18:53.490Z,9.14
2018-04-11T23:21:55.936Z,9.05
2018-04-11T23:24:58.441Z,9.01
2018-04-11T23:28:00.976Z,8.88
2018-04-11T23:31:03.470Z,8.93
2018-04-11T23:34:05.940Z,8.94
2018-04-11T23:37:08.491Z,8.79
2018-04-11T23:40:11.001Z,8.72
2018-04-11T23:43:13.476Z,8.71
2018-04-11T23:46:16.006Z,8.74
2018-04-11T23:49:18.545Z,8.68
2018-04-11T23:52:21.021Z,8.57
2018-04-11T23:55:23.540Z,8.56
2018-04-11T23:58:26.033Z,8.60
